Terminal Aerodrome Forecast
Issued by NWS

Home | Current Version | Previous Version | Text Only | Print | Product List | Glossary On
Versions: 1 2 3 4 5 6 7 8 9 10 11 12 13 14 15 16 17 18 19 20 21 22 23 24 25 26
000
FTUS45 KGJT 311735
TAFTEX
TAF
KTEX 311735Z 3118/0118 26003KT P6SM VCSH SCT120 SCT150
     FM311900 27006KT P6SM VCTS SCT090CB SCT150
     FM010200 13004KT P6SM SCT100 SCT200
     FM011600 14004KT P6SM BKN080 BKN140=

USA.gov is the U.S. government's official web portal to all federal, state and local government web resources and services.